createdAt,value
2024-03-12T00:00:16.513Z,0.000000
2024-03-12T00:05:16.475Z,0.000000
2024-03-12T00:10:16.812Z,0.000000
2024-03-12T00:15:16.519Z,0.000000
2024-03-12T00:20:16.524Z,0.000000
2024-03-12T00:25:16.543Z,0.000000
2024-03-12T00:30:16.519Z,0.000000
2024-03-12T00:35:16.530Z,0.000000
2024-03-12T00:40:16.573Z,0.000000
2024-03-12T00:45:16.761Z,0.000000
2024-03-12T00:50:16.814Z,0.000000
2024-03-12T00:55:16.548Z,0.000000
2024-03-12T01:00:16.605Z,0.000000
2024-03-12T01:05:16.542Z,0.000000
2024-03-12T01:10:16.702Z,0.000000
2024-03-12T01:15:16.729Z,0.000000
2024-03-12T01:20:16.752Z,0.000000
2024-03-12T01:25:16.768Z,0.000000
2024-03-12T01:30:16.610Z,0.000000
2024-03-12T01:35:16.586Z,0.000000
2024-03-12T01:40:16.825Z,0.000000
2024-03-12T01:45:16.640Z,0.000000
2024-03-12T01:50:16.682Z,0.000000
2024-03-12T01:55:16.887Z,0.000000
2024-03-12T02:00:16.632Z,0.000000
2024-03-12T02:05:16.650Z,0.000000
2024-03-12T02:10:16.725Z,0.000000
2024-03-12T02:15:16.913Z,0.000000
2024-03-12T02:20:16.890Z,0.000000
2024-03-12T02:25:16.740Z,0.000000
2024-03-12T02:30:16.866Z,0.000000
2024-03-12T02:35:17.435Z,0.000000
2024-03-12T02:40:17.595Z,0.000000
2024-03-12T02:45:17.981Z,0.000000
2024-03-12T02:50:17.446Z,0.000000
2024-03-12T02:55:16.774Z,0.000000
2024-03-12T03:00:16.996Z,0.000000
2024-03-12T03:05:16.944Z,0.000000
2024-03-12T03:10:16.982Z,0.000000
2024-03-12T03:15:16.958Z,0.000000
2024-03-12T03:20:17.179Z,0.000000
2024-03-12T03:25:18.978Z,0.000000
2024-03-12T03:30:16.785Z,0.000000
2024-03-12T03:35:18.917Z,0.000000
2024-03-12T03:40:17.076Z,0.000000
2024-03-12T03:45:17.056Z,0.000000
2024-03-12T03:50:16.827Z,0.000000
2024-03-12T03:55:16.812Z,0.000000
2024-03-12T04:00:16.764Z,0.000000
2024-03-12T04:05:16.344Z,0.000000
2024-03-12T04:10:16.480Z,0.000000
2024-03-12T04:15:16.394Z,0.000000
2024-03-12T04:20:16.377Z,0.000000
2024-03-12T04:25:16.481Z,0.000000
2024-03-12T04:30:16.403Z,0.000000
2024-03-12T04:35:16.677Z,0.000000
2024-03-12T04:40:16.561Z,0.000000
2024-03-12T04:45:16.450Z,0.000000
2024-03-12T04:50:16.476Z,0.000000
2024-03-12T04:55:16.484Z,0.000000
2024-03-12T05:00:17.208Z,0.000000
2024-03-12T05:05:16.478Z,0.000000
2024-03-12T05:10:16.613Z,0.000000
2024-03-12T05:15:16.713Z,0.000000
2024-03-12T05:20:16.510Z,0.000000
2024-03-12T05:25:16.566Z,0.000000
2024-03-12T05:30:16.672Z,0.000000
2024-03-12T05:35:16.525Z,0.000000
2024-03-12T05:40:16.803Z,0.000000
2024-03-12T05:45:16.532Z,0.000000
2024-03-12T05:50:16.513Z,0.000000
2024-03-12T05:55:16.906Z,0.000000
2024-03-12T06:00:16.532Z,0.000000
2024-03-12T06:05:18.723Z,0.000000
2024-03-12T06:10:16.661Z,0.000000
2024-03-12T06:15:16.574Z,0.000000
2024-03-12T06:20:16.767Z,0.000000
2024-03-12T06:25:16.710Z,0.000000
2024-03-12T06:30:16.782Z,0.000000
2024-03-12T06:35:16.615Z,0.000000
2024-03-12T06:40:16.846Z,0.000000
2024-03-12T06:45:16.653Z,0.000000
2024-03-12T06:50:16.681Z,0.000000
2024-03-12T06:55:17.405Z,0.000000
2024-03-12T07:00:16.694Z,0.000000
2024-03-12T07:05:16.671Z,0.000000
2024-03-12T07:10:16.929Z,0.000000
2024-03-12T07:15:16.687Z,0.000000
2024-03-12T07:20:16.902Z,0.000000
2024-03-12T07:25:18.891Z,0.000000
2024-03-12T07:30:16.977Z,0.000000
2024-03-12T07:35:16.699Z,0.000000
2024-03-12T07:40:17.460Z,0.000000
2024-03-12T07:45:16.819Z,0.000000
2024-03-12T07:50:16.739Z,0.000000
2024-03-12T07:55:16.999Z,0.000000
2024-03-12T08:00:16.802Z,0.000000
2024-03-12T08:05:16.836Z,0.000000
2024-03-12T08:10:16.992Z,0.000000
2024-03-12T08:15:17.075Z,0.000000
2024-03-12T08:20:16.806Z,0.000000
2024-03-12T08:25:18.735Z,0.000000
2024-03-12T08:30:16.917Z,0.000000
2024-03-12T08:35:16.866Z,0.000000
2024-03-12T08:40:17.085Z,0.000000
2024-03-12T08:45:18.016Z,0.000000
2024-03-12T08:50:18.950Z,0.000000
2024-03-12T08:55:17.136Z,0.000000
2024-03-12T09:00:16.905Z,0.000000
2024-03-12T09:05:16.861Z,0.000000
2024-03-12T09:10:17.077Z,0.000000
2024-03-12T09:15:19.044Z,0.000000
2024-03-12T09:20:16.944Z,0.000000
2024-03-12T09:25:19.424Z,0.000000
2024-03-12T09:30:16.942Z,0.000000
2024-03-12T09:35:17.110Z,0.000000
2024-03-12T09:40:17.318Z,0.000000
2024-03-12T09:45:17.265Z,0.000000
2024-03-12T09:50:17.140Z,0.000000
2024-03-12T09:55:17.685Z,0.000000
2024-03-12T10:00:17.002Z,0.000000
2024-03-12T10:05:16.973Z,0.000000
2024-03-12T10:10:17.103Z,0.000000
2024-03-12T10:15:17.029Z,0.000000
2024-03-12T10:20:17.379Z,0.000000
2024-03-12T10:25:17.240Z,0.000000
2024-03-12T10:30:17.208Z,0.000000
2024-03-12T10:35:17.200Z,0.000000
2024-03-12T10:40:17.148Z,0.000000
2024-03-12T10:45:17.127Z,0.000000
2024-03-12T10:50:17.058Z,0.000000
2024-03-12T10:55:17.130Z,0.000000
2024-03-12T11:00:17.090Z,0.000000
2024-03-12T11:05:17.069Z,0.000000
2024-03-12T11:10:17.293Z,5.000000
2024-03-12T11:15:17.201Z,5.000000
2024-03-12T11:20:17.118Z,7.000000
2024-03-12T11:25:17.410Z,9.000000
2024-03-12T11:30:17.158Z,10.000000
2024-03-12T11:35:17.350Z,14.000000
2024-03-12T11:40:17.259Z,22.000000
2024-03-12T11:45:17.224Z,27.000000
2024-03-12T11:50:17.336Z,30.000000
2024-03-12T11:55:17.292Z,33.000000
2024-03-12T12:00:17.187Z,36.000000
2024-03-12T12:05:17.208Z,40.000000
2024-03-12T12:10:15.438Z,43.000000
2024-03-12T12:15:15.202Z,45.000000
2024-03-12T12:20:16.504Z,47.000000
2024-03-12T12:25:15.332Z,49.000000
2024-03-12T12:30:15.211Z,51.000000
2024-03-12T12:35:15.513Z,52.000000
2024-03-12T12:40:15.872Z,53.000000
2024-03-12T12:45:15.424Z,54.000000
2024-03-12T12:50:15.307Z,56.000000
2024-03-12T12:55:15.380Z,214.000000
2024-03-12T13:00:15.327Z,298.000000
2024-03-12T13:05:15.328Z,312.000000
2024-03-12T13:10:15.386Z,327.000000
2024-03-12T13:15:15.547Z,342.000000
2024-03-12T13:20:15.348Z,357.000000
2024-03-12T13:25:15.526Z,371.000000
2024-03-12T13:30:15.380Z,384.000000
2024-03-12T13:35:15.350Z,393.000000
2024-03-12T13:40:15.470Z,396.000000
2024-03-12T13:45:15.621Z,382.000000
2024-03-12T13:50:15.397Z,440.000000
2024-03-12T13:55:15.580Z,454.000000
2024-03-12T14:00:15.437Z,467.000000
2024-03-12T14:05:15.861Z,479.000000
2024-03-12T14:10:15.673Z,491.000000
2024-03-12T14:15:15.410Z,504.000000
2024-03-12T14:20:15.481Z,516.000000
2024-03-12T14:25:15.554Z,530.000000
2024-03-12T14:30:15.715Z,540.000000
2024-03-12T14:35:15.643Z,551.000000
2024-03-12T14:40:15.561Z,563.000000
2024-03-12T14:45:15.479Z,574.000000
2024-03-12T14:50:15.461Z,584.000000
2024-03-12T14:55:15.593Z,596.000000
2024-03-12T15:00:15.534Z,605.000000
2024-03-12T15:05:15.883Z,614.000000
2024-03-12T15:10:15.650Z,624.000000
2024-03-12T15:15:15.512Z,634.000000
2024-03-12T15:20:16.475Z,643.000000
2024-03-12T15:25:15.732Z,652.000000
2024-03-12T15:30:15.612Z,659.000000
2024-03-12T15:35:15.824Z,666.000000
2024-03-12T15:40:15.608Z,674.000000
2024-03-12T15:45:15.550Z,681.000000
2024-03-12T15:50:15.807Z,687.000000
2024-03-12T15:55:16.172Z,694.000000
2024-03-12T16:00:15.870Z,701.000000
2024-03-12T16:05:15.650Z,704.000000
2024-03-12T16:10:16.024Z,708.000000
2024-03-12T16:15:15.842Z,712.000000
2024-03-12T16:20:16.434Z,715.000000
2024-03-12T16:25:15.842Z,716.000000
2024-03-12T16:30:16.415Z,719.000000
2024-03-12T16:35:16.568Z,722.000000
2024-03-12T16:40:15.898Z,723.000000
2024-03-12T16:45:15.889Z,726.000000
2024-03-12T16:50:15.705Z,726.000000
2024-03-12T16:55:15.755Z,726.000000
2024-03-12T17:00:15.991Z,728.000000
2024-03-12T17:05:15.799Z,726.000000
2024-03-12T17:10:16.075Z,727.000000
2024-03-12T17:15:15.896Z,724.000000
2024-03-12T17:20:17.796Z,722.000000
2024-03-12T17:25:15.793Z,719.000000
2024-03-12T17:30:15.757Z,410.000000
2024-03-12T17:35:15.775Z,215.000000
2024-03-12T17:40:16.402Z,166.000000
2024-03-12T17:45:15.837Z,235.000000
2024-03-12T17:50:16.008Z,387.000000
2024-03-12T17:55:15.869Z,397.000000
2024-03-12T18:00:15.836Z,198.000000
2024-03-12T18:05:15.796Z,295.000000
2024-03-12T18:10:16.061Z,332.000000
2024-03-12T18:15:16.136Z,461.000000
2024-03-12T18:20:15.857Z,469.000000
2024-03-12T18:25:15.902Z,425.000000
2024-03-12T18:30:15.917Z,185.000000
2024-03-12T18:35:15.930Z,205.000000
2024-03-12T18:40:16.113Z,176.000000
2024-03-12T18:45:16.134Z,300.000000
2024-03-12T18:50:15.946Z,213.000000
2024-03-12T18:55:16.028Z,244.000000
2024-03-12T19:00:16.075Z,361.000000
2024-03-12T19:05:16.083Z,270.000000
2024-03-12T19:10:16.129Z,288.000000
2024-03-12T19:15:16.389Z,138.000000
2024-03-12T19:20:16.235Z,146.000000
2024-03-12T19:25:16.020Z,220.000000
2024-03-12T19:30:16.170Z,147.000000
2024-03-12T19:35:15.973Z,98.000000
2024-03-12T19:40:16.159Z,179.000000
2024-03-12T19:45:16.014Z,173.000000
2024-03-12T19:50:16.130Z,159.000000
2024-03-12T19:55:16.101Z,75.000000
2024-03-12T20:00:15.973Z,275.000000
2024-03-12T20:05:16.198Z,184.000000
2024-03-12T20:10:16.089Z,183.000000
2024-03-12T20:15:15.999Z,82.000000
2024-03-12T20:20:16.281Z,246.000000
2024-03-12T20:25:16.255Z,315.000000
2024-03-12T20:30:16.081Z,167.000000
2024-03-12T20:35:16.232Z,344.000000
2024-03-12T20:40:16.115Z,194.000000
2024-03-12T20:45:16.212Z,244.000000
2024-03-12T20:50:16.088Z,221.000000
2024-03-12T20:55:16.477Z,45.000000
2024-03-12T21:00:16.091Z,205.000000
2024-03-12T21:05:16.805Z,124.000000
2024-03-12T21:10:16.265Z,60.000000
2024-03-12T21:15:16.151Z,160.000000
2024-03-12T21:20:16.150Z,54.000000
2024-03-12T21:25:16.389Z,145.000000
2024-03-12T21:30:16.204Z,112.000000
2024-03-12T21:35:16.178Z,60.000000
2024-03-12T21:40:16.178Z,36.000000
2024-03-12T21:45:16.829Z,65.000000
2024-03-12T21:50:17.787Z,51.000000
2024-03-12T21:55:16.324Z,61.000000
2024-03-12T22:00:16.235Z,22.000000
2024-03-12T22:05:16.261Z,24.000000
2024-03-12T22:10:16.220Z,23.000000
2024-03-12T22:15:16.745Z,15.000000
2024-03-12T22:20:17.811Z,13.000000
2024-03-12T22:25:16.411Z,12.000000
2024-03-12T22:30:16.388Z,12.000000
2024-03-12T22:35:16.308Z,10.000000
2024-03-12T22:40:16.599Z,7.000000
2024-03-12T22:45:16.627Z,2.000000
2024-03-12T22:50:16.329Z,0.000000
2024-03-12T22:55:16.389Z,0.000000
2024-03-12T23:00:16.312Z,0.000000
2024-03-12T23:05:16.404Z,0.000000
2024-03-12T23:10:16.544Z,0.000000
2024-03-12T23:15:16.512Z,0.000000
2024-03-12T23:20:16.332Z,0.000000
2024-03-12T23:25:16.355Z,0.000000
2024-03-12T23:30:16.378Z,0.000000
2024-03-12T23:35:16.370Z,0.000000
2024-03-12T23:40:16.675Z,0.000000
2024-03-12T23:45:16.579Z,0.000000
2024-03-12T23:50:16.395Z,0.000000
2024-03-12T23:55:16.455Z,0.000000
